sensor_id;sensor_type;location;lat;lon;timestamp;pressure;altitude;pressure_sealevel;temperature;humidity
2268;BME280;11052;43.338;25.502;2024-01-25T00:00:28;100903.03;;;-0.19;100.00
2268;BME280;11052;43.338;25.502;2024-01-25T00:02:56;100903.19;;;-0.13;100.00
2268;BME280;11052;43.338;25.502;2024-01-25T00:05:23;100900.56;;;-0.16;100.00
2268;BME280;11052;43.338;25.502;2024-01-25T00:07:52;100890.22;;;-0.23;100.00
2268;BME280;11052;43.338;25.502;2024-01-25T00:10:19;100887.56;;;-0.28;100.00
2268;BME280;11052;43.338;25.502;2024-01-25T00:12:46;100881.63;;;-0.27;100.00
2268;BME280;11052;43.338;25.502;2024-01-25T00:15:13;100885.88;;;-0.27;100.00
2268;BME280;11052;43.338;25.502;2024-01-25T00:17:41;100889.88;;;-0.37;100.00
2268;BME280;11052;43.338;25.502;2024-01-25T00:20:10;100898.16;;;-0.46;100.00
2268;BME280;11052;43.338;25.502;2024-01-25T00:22:37;100900.63;;;-0.49;100.00
2268;BME280;11052;43.338;25.502;2024-01-25T00:25:06;100897.25;;;-0.48;100.00
2268;BME280;11052;43.338;25.502;2024-01-25T00:27:33;100891.28;;;-0.50;100.00
2268;BME280;11052;43.338;25.502;2024-01-25T00:30:01;100881.63;;;-0.63;100.00
2268;BME280;11052;43.338;25.502;2024-01-25T00:32:28;100884.91;;;-0.67;100.00
2268;BME280;11052;43.338;25.502;2024-01-25T00:34:55;100884.88;;;-0.69;100.00
2268;BME280;11052;43.338;25.502;2024-01-25T00:37:23;100879.81;;;-0.67;100.00
2268;BME280;11052;43.338;25.502;2024-01-25T00:39:51;100892.59;;;-0.66;100.00
2268;BME280;11052;43.338;25.502;2024-01-25T00:42:21;100889.38;;;-0.58;100.00
2268;BME280;11052;43.338;25.502;2024-01-25T00:44:49;100877.50;;;-0.58;100.00
2268;BME280;11052;43.338;25.502;2024-01-25T00:47:17;100868.09;;;-0.60;100.00
2268;BME280;11052;43.338;25.502;2024-01-25T00:49:45;100872.97;;;-0.70;100.00
2268;BME280;11052;43.338;25.502;2024-01-25T00:52:12;100863.66;;;-0.69;100.00
2268;BME280;11052;43.338;25.502;2024-01-25T00:54:40;100871.13;;;-0.75;100.00
2268;BME280;11052;43.338;25.502;2024-01-25T00:57:08;100865.88;;;-0.81;100.00
2268;BME280;11052;43.338;25.502;2024-01-25T00:59:38;100856.00;;;-0.69;100.00
2268;BME280;11052;43.338;25.502;2024-01-25T01:02:06;100846.44;;;-0.79;100.00
2268;BME280;11052;43.338;25.502;2024-01-25T01:04:37;100840.50;;;-0.78;100.00
2268;BME280;11052;43.338;25.502;2024-01-25T01:07:05;100856.84;;;-0.70;100.00
2268;BME280;11052;43.338;25.502;2024-01-25T01:09:33;100841.09;;;-0.54;100.00
2268;BME280;11052;43.338;25.502;2024-01-25T01:12:00;100862.50;;;-0.46;100.00
2268;BME280;11052;43.338;25.502;2024-01-25T01:14:27;100858.53;;;0.05;100.00
2268;BME280;11052;43.338;25.502;2024-01-25T01:16:55;100856.44;;;0.26;100.00
2268;BME280;11052;43.338;25.502;2024-01-25T01:19:22;100857.28;;;0.26;100.00
2268;BME280;11052;43.338;25.502;2024-01-25T01:21:49;100861.38;;;0.18;100.00
2268;BME280;11052;43.338;25.502;2024-01-25T01:24:16;100859.38;;;0.05;100.00
2268;BME280;11052;43.338;25.502;2024-01-25T01:26:44;100858.44;;;0.41;100.00
2268;BME280;11052;43.338;25.502;2024-01-25T01:29:12;100856.09;;;0.51;100.00
2268;BME280;11052;43.338;25.502;2024-01-25T01:31:39;100855.19;;;0.48;100.00
2268;BME280;11052;43.338;25.502;2024-01-25T01:34:07;100854.97;;;1.32;100.00
2268;BME280;11052;43.338;25.502;2024-01-25T01:36:34;100860.84;;;1.26;100.00
2268;BME280;11052;43.338;25.502;2024-01-25T01:39:01;100855.59;;;1.17;100.00
2268;BME280;11052;43.338;25.502;2024-01-25T01:41:29;100845.97;;;1.03;100.00
2268;BME280;11052;43.338;25.502;2024-01-25T01:43:56;100837.34;;;0.96;100.00
2268;BME280;11052;43.338;25.502;2024-01-25T01:46:31;100826.91;;;0.82;100.00
2268;BME280;11052;43.338;25.502;2024-01-25T01:48:59;100831.84;;;0.73;100.00
2268;BME280;11052;43.338;25.502;2024-01-25T01:51:28;100830.31;;;0.81;100.00
2268;BME280;11052;43.338;25.502;2024-01-25T01:53:56;100824.41;;;0.84;100.00
2268;BME280;11052;43.338;25.502;2024-01-25T01:56:24;100826.81;;;0.76;100.00
2268;BME280;11052;43.338;25.502;2024-01-25T01:58:54;100823.50;;;0.82;100.00
2268;BME280;11052;43.338;25.502;2024-01-25T02:01:23;100823.16;;;0.63;100.00
2268;BME280;11052;43.338;25.502;2024-01-25T02:03:51;100827.97;;;0.48;100.00
2268;BME280;11052;43.338;25.502;2024-01-25T02:06:18;100821.72;;;0.32;100.00
2268;BME280;11052;43.338;25.502;2024-01-25T02:08:47;100818.06;;;0.20;100.00
2268;BME280;11052;43.338;25.502;2024-01-25T02:11:15;100821.63;;;0.28;100.00
2268;BME280;11052;43.338;25.502;2024-01-25T02:13:42;100802.91;;;0.26;100.00
2268;BME280;11052;43.338;25.502;2024-01-25T02:16:09;100807.09;;;0.24;100.00
2268;BME280;11052;43.338;25.502;2024-01-25T02:18:36;100810.44;;;0.21;100.00
2268;BME280;11052;43.338;25.502;2024-01-25T02:21:04;100809.50;;;0.16;100.00
2268;BME280;11052;43.338;25.502;2024-01-25T02:23:33;100805.22;;;0.15;100.00
2268;BME280;11052;43.338;25.502;2024-01-25T02:26:00;100816.31;;;0.17;100.00
2268;BME280;11052;43.338;25.502;2024-01-25T02:28:27;100814.56;;;0.15;100.00
2268;BME280;11052;43.338;25.502;2024-01-25T02:30:54;100815.63;;;0.24;100.00
2268;BME280;11052;43.338;25.502;2024-01-25T02:33:21;100812.44;;;0.36;100.00
2268;BME280;11052;43.338;25.502;2024-01-25T02:35:48;100811.13;;;0.56;100.00
2268;BME280;11052;43.338;25.502;2024-01-25T02:38:15;100809.50;;;0.60;100.00
2268;BME280;11052;43.338;25.502;2024-01-25T02:40:44;100828.19;;;0.59;100.00
2268;BME280;11052;43.338;25.502;2024-01-25T02:43:11;100830.81;;;0.63;100.00
2268;BME280;11052;43.338;25.502;2024-01-25T02:45:38;100821.38;;;0.58;100.00
2268;BME280;11052;43.338;25.502;2024-01-25T02:48:06;100820.47;;;0.56;100.00
2268;BME280;11052;43.338;25.502;2024-01-25T02:50:33;100814.44;;;0.51;100.00
2268;BME280;11052;43.338;25.502;2024-01-25T02:53:00;100806.69;;;0.46;100.00
2268;BME280;11052;43.338;25.502;2024-01-25T02:55:27;100804.91;;;0.42;100.00
2268;BME280;11052;43.338;25.502;2024-01-25T02:57:56;100798.03;;;0.38;100.00
2268;BME280;11052;43.338;25.502;2024-01-25T03:00:23;100786.09;;;0.36;100.00
2268;BME280;11052;43.338;25.502;2024-01-25T03:02:50;100782.75;;;0.40;100.00
2268;BME280;11052;43.338;25.502;2024-01-25T03:05:17;100774.63;;;0.59;100.00
2268;BME280;11052;43.338;25.502;2024-01-25T03:07:44;100775.16;;;0.91;100.00
2268;BME280;11052;43.338;25.502;2024-01-25T03:10:11;100767.81;;;1.11;100.00
2268;BME280;11052;43.338;25.502;2024-01-25T03:12:38;100764.75;;;1.33;100.00
2268;BME280;11052;43.338;25.502;2024-01-25T03:15:09;100764.50;;;1.77;100.00
2268;BME280;11052;43.338;25.502;2024-01-25T03:17:36;100762.19;;;1.96;100.00
2268;BME280;11052;43.338;25.502;2024-01-25T03:20:05;100765.78;;;2.12;100.00
2268;BME280;11052;43.338;25.502;2024-01-25T03:22:32;100760.88;;;2.30;100.00
2268;BME280;11052;43.338;25.502;2024-01-25T03:24:59;100765.09;;;2.27;100.00
2268;BME280;11052;43.338;25.502;2024-01-25T03:27:26;100751.56;;;2.37;100.00
2268;BME280;11052;43.338;25.502;2024-01-25T03:29:53;100759.25;;;2.36;100.00
2268;BME280;11052;43.338;25.502;2024-01-25T03:32:22;100755.13;;;2.50;100.00
2268;BME280;11052;43.338;25.502;2024-01-25T03:34:49;100749.25;;;2.61;100.00
2268;BME280;11052;43.338;25.502;2024-01-25T03:37:16;100754.44;;;2.72;100.00
2268;BME280;11052;43.338;25.502;2024-01-25T03:39:43;100748.50;;;2.75;100.00
2268;BME280;11052;43.338;25.502;2024-01-25T03:42:10;100758.81;;;2.81;100.00
2268;BME280;11052;43.338;25.502;2024-01-25T03:44:37;100746.91;;;2.86;100.00
2268;BME280;11052;43.338;25.502;2024-01-25T03:47:04;100755.31;;;2.74;100.00
2268;BME280;11052;43.338;25.502;2024-01-25T03:49:33;100751.03;;;2.72;100.00
2268;BME280;11052;43.338;25.502;2024-01-25T03:52:00;100754.38;;;2.63;100.00
2268;BME280;11052;43.338;25.502;2024-01-25T03:54:27;100762.75;;;2.47;100.00
2268;BME280;11052;43.338;25.502;2024-01-25T03:56:54;100761.00;;;2.40;100.00
2268;BME280;11052;43.338;25.502;2024-01-25T03:59:21;100765.19;;;2.33;100.00
2268;BME280;11052;43.338;25.502;2024-01-25T04:01:48;100769.34;;;2.23;100.00
2268;BME280;11052;43.338;25.502;2024-01-25T04:04:15;100770.88;;;2.11;100.00
2268;BME280;11052;43.338;25.502;2024-01-25T04:06:44;100763.16;;;2.05;100.00
2268;BME280;11052;43.338;25.502;2024-01-25T04:09:12;100769.75;;;1.87;100.00
2268;BME280;11052;43.338;25.502;2024-01-25T04:11:40;100771.47;;;1.90;100.00
2268;BME280;11052;43.338;25.502;2024-01-25T04:14:07;100769.69;;;1.83;100.00
2268;BME280;11052;43.338;25.502;2024-01-25T04:16:34;100773.84;;;1.76;100.00
2268;BME280;11052;43.338;25.502;2024-01-25T04:19:01;100763.59;;;1.70;100.00
2268;BME280;11052;43.338;25.502;2024-01-25T04:21:29;100769.50;;;1.68;100.00
2268;BME280;11052;43.338;25.502;2024-01-25T04:23:57;100763.59;;;1.72;100.00
2268;BME280;11052;43.338;25.502;2024-01-25T04:26:24;100761.97;;;1.80;100.00
2268;BME280;11052;43.338;25.502;2024-01-25T04:28:51;100764.72;;;1.93;100.00
2268;BME280;11052;43.338;25.502;2024-01-25T04:31:18;100772.84;;;2.32;100.00
2268;BME280;11052;43.338;25.502;2024-01-25T04:33:46;100763.59;;;2.46;100.00
2268;BME280;11052;43.338;25.502;2024-01-25T04:36:13;100783.38;;;2.59;100.00
2268;BME280;11052;43.338;25.502;2024-01-25T04:38:40;100777.31;;;2.52;100.00
2268;BME280;11052;43.338;25.502;2024-01-25T04:41:08;100785.91;;;2.57;100.00
2268;BME280;11052;43.338;25.502;2024-01-25T04:43:35;100786.69;;;2.52;100.00
2268;BME280;11052;43.338;25.502;2024-01-25T04:46:03;100805.44;;;2.51;100.00
2268;BME280;11052;43.338;25.502;2024-01-25T04:48:30;100801.94;;;2.43;100.00
2268;BME280;11052;43.338;25.502;2024-01-25T04:50:58;100797.72;;;2.45;100.00
2268;BME280;11052;43.338;25.502;2024-01-25T04:53:25;100791.63;;;2.35;100.00
2268;BME280;11052;43.338;25.502;2024-01-25T04:55:53;100799.22;;;2.29;100.00
2268;BME280;11052;43.338;25.502;2024-01-25T04:58:22;100800.94;;;2.30;100.00
2268;BME280;11052;43.338;25.502;2024-01-25T05:00:49;100801.75;;;2.24;100.00
2268;BME280;11052;43.338;25.502;2024-01-25T05:03:18;100805.06;;;2.17;100.00
2268;BME280;11052;43.338;25.502;2024-01-25T05:05:45;100805.88;;;2.15;100.00
2268;BME280;11052;43.338;25.502;2024-01-25T05:08:12;100805.84;;;2.12;100.00
2268;BME280;11052;43.338;25.502;2024-01-25T05:10:39;100810.81;;;2.00;100.00
2268;BME280;11052;43.338;25.502;2024-01-25T05:13:07;100809.97;;;2.01;100.00
2268;BME280;11052;43.338;25.502;2024-01-25T05:15:36;100813.41;;;2.03;100.00
2268;BME280;11052;43.338;25.502;2024-01-25T05:18:03;100816.84;;;2.06;100.00
2268;BME280;11052;43.338;25.502;2024-01-25T05:20:31;100821.06;;;2.03;100.00
2268;BME280;11052;43.338;25.502;2024-01-25T05:22:59;100821.88;;;2.00;100.00
2268;BME280;11052;43.338;25.502;2024-01-25T05:25:26;100815.97;;;2.03;100.00
2268;BME280;11052;43.338;25.502;2024-01-25T05:27:53;100815.13;;;2.04;100.00
2268;BME280;11052;43.338;25.502;2024-01-25T05:30:21;100823.69;;;2.07;100.00
2268;BME280;11052;43.338;25.502;2024-01-25T05:32:49;100819.44;;;2.09;100.00
2268;BME280;11052;43.338;25.502;2024-01-25T05:35:19;100816.91;;;2.09;100.00
2268;BME280;11052;43.338;25.502;2024-01-25T05:37:46;100819.78;;;2.35;100.00
2268;BME280;11052;43.338;25.502;2024-01-25T05:40:13;100818.31;;;2.57;100.00
2268;BME280;11052;43.338;25.502;2024-01-25T05:42:40;100826.03;;;2.64;100.00
2268;BME280;11052;43.338;25.502;2024-01-25T05:45:08;100837.94;;;2.58;100.00
2268;BME280;11052;43.338;25.502;2024-01-25T05:47:35;100842.97;;;2.49;100.00
2268;BME280;11052;43.338;25.502;2024-01-25T05:50:04;100843.75;;;2.43;100.00
2268;BME280;11052;43.338;25.502;2024-01-25T05:52:32;100849.53;;;2.28;100.00
2268;BME280;11052;43.338;25.502;2024-01-25T05:55:02;100848.75;;;2.34;100.00
2268;BME280;11052;43.338;25.502;2024-01-25T05:57:29;100848.66;;;2.26;100.00
2268;BME280;11052;43.338;25.502;2024-01-25T05:59:56;100853.72;;;2.22;100.00
2268;BME280;11052;43.338;25.502;2024-01-25T06:02:23;100857.94;;;2.18;100.00
2268;BME280;11052;43.338;25.502;2024-01-25T06:04:50;100867.28;;;2.16;100.00
2268;BME280;11052;43.338;25.502;2024-01-25T06:07:19;100861.44;;;2.26;100.00
2268;BME280;11052;43.338;25.502;2024-01-25T06:09:46;100863.09;;;2.21;100.00
2268;BME280;11052;43.338;25.502;2024-01-25T06:12:13;100868.16;;;2.18;100.00
2268;BME280;11052;43.338;25.502;2024-01-25T06:14:40;100870.69;;;2.15;100.00
2268;BME280;11052;43.338;25.502;2024-01-25T06:17:08;100869.00;;;2.17;100.00
2268;BME280;11052;43.338;25.502;2024-01-25T06:19:35;100868.25;;;2.26;100.00
2268;BME280;11052;43.338;25.502;2024-01-25T06:22:02;100870.09;;;2.36;100.00
2268;BME280;11052;43.338;25.502;2024-01-25T06:24:30;100873.00;;;2.68;100.00
2268;BME280;11052;43.338;25.502;2024-01-25T06:26:57;100860.53;;;2.99;100.00
2268;BME280;11052;43.338;25.502;2024-01-25T06:29:24;100858.94;;;3.11;100.00
2268;BME280;11052;43.338;25.502;2024-01-25T06:31:52;100865.03;;;3.22;100.00
2268;BME280;11052;43.338;25.502;2024-01-25T06:34:19;100861.66;;;3.26;100.00
2268;BME280;11052;43.338;25.502;2024-01-25T06:36:46;100864.38;;;3.45;100.00
2268;BME280;11052;43.338;25.502;2024-01-25T06:39:13;100861.81;;;3.51;100.00
2268;BME280;11052;43.338;25.502;2024-01-25T06:41:41;100867.78;;;3.51;100.00
2268;BME280;11052;43.338;25.502;2024-01-25T06:44:08;100859.44;;;3.78;100.00
2268;BME280;11052;43.338;25.502;2024-01-25T06:46:36;100859.53;;;3.89;100.00
2268;BME280;11052;43.338;25.502;2024-01-25T06:49:03;100863.00;;;4.02;100.00
2268;BME280;11052;43.338;25.502;2024-01-25T06:51:30;100861.41;;;4.19;100.00
2268;BME280;11052;43.338;25.502;2024-01-25T06:53:57;100864.06;;;4.51;100.00
2268;BME280;11052;43.338;25.502;2024-01-25T06:56:25;100859.03;;;4.75;100.00
2268;BME280;11052;43.338;25.502;2024-01-25T06:58:53;100864.22;;;4.97;100.00
2268;BME280;11052;43.338;25.502;2024-01-25T07:01:21;100855.66;;;4.99;100.00
2268;BME280;11052;43.338;25.502;2024-01-25T07:03:49;100859.94;;;4.97;100.00
2268;BME280;11052;43.338;25.502;2024-01-25T07:06:16;100859.94;;;5.05;100.00
2268;BME280;11052;43.338;25.502;2024-01-25T07:08:44;100855.66;;;5.33;100.00
2268;BME280;11052;43.338;25.502;2024-01-25T07:11:11;100860.78;;;5.60;100.00
2268;BME280;11052;43.338;25.502;2024-01-25T07:13:40;100853.91;;;5.86;100.00
2268;BME280;11052;43.338;25.502;2024-01-25T07:16:09;100845.34;;;5.81;100.00
2268;BME280;11052;43.338;25.502;2024-01-25T07:18:36;100854.75;;;5.88;100.00
2268;BME280;11052;43.338;25.502;2024-01-25T07:21:03;100849.63;;;5.88;100.00
2268;BME280;11052;43.338;25.502;2024-01-25T07:23:30;100849.63;;;5.81;100.00
2268;BME280;11052;43.338;25.502;2024-01-25T07:25:57;100860.78;;;5.90;100.00
2268;BME280;11052;43.338;25.502;2024-01-25T07:28:25;100865.06;;;5.70;100.00
2268;BME280;11052;43.338;25.502;2024-01-25T07:30:52;100865.94;;;5.63;100.00
2268;BME280;11052;43.338;25.502;2024-01-25T07:33:20;100861.66;;;5.57;100.00
2268;BME280;11052;43.338;25.502;2024-01-25T07:35:47;100866.78;;;5.54;100.00
2268;BME280;11052;43.338;25.502;2024-01-25T07:38:14;100859.94;;;5.49;100.00
2268;BME280;11052;43.338;25.502;2024-01-25T07:40:42;100862.50;;;5.63;100.00
2268;BME280;11052;43.338;25.502;2024-01-25T07:43:09;100851.34;;;5.71;100.00
2268;BME280;11052;43.338;25.502;2024-01-25T07:45:36;100854.78;;;5.72;100.00
2268;BME280;11052;43.338;25.502;2024-01-25T07:48:05;100855.66;;;5.60;100.00
2268;BME280;11052;43.338;25.502;2024-01-25T07:50:34;100859.94;;;5.50;100.00
2268;BME280;11052;43.338;25.502;2024-01-25T07:53:01;100862.50;;;5.50;100.00
2268;BME280;11052;43.338;25.502;2024-01-25T07:55:28;100861.66;;;5.42;100.00
2268;BME280;11052;43.338;25.502;2024-01-25T07:57:56;100865.09;;;5.40;100.00
2268;BME280;11052;43.338;25.502;2024-01-25T08:00:23;100861.66;;;5.47;100.00
2268;BME280;11052;43.338;25.502;2024-01-25T08:02:50;100859.94;;;5.49;100.00
2268;BME280;11052;43.338;25.502;2024-01-25T08:05:17;100863.38;;;5.43;100.00
2268;BME280;11052;43.338;25.502;2024-01-25T08:07:46;100859.94;;;5.53;100.00
2268;BME280;11052;43.338;25.502;2024-01-25T08:10:14;100870.22;;;5.56;100.00
2268;BME280;11052;43.338;25.502;2024-01-25T08:12:42;100866.81;;;5.53;100.00
2268;BME280;11052;43.338;25.502;2024-01-25T08:15:13;100862.50;;;5.67;100.00
2268;BME280;11052;43.338;25.502;2024-01-25T08:17:40;100874.50;;;5.86;100.00
2268;BME280;11052;43.338;25.502;2024-01-25T08:20:09;100859.94;;;5.90;100.00
2268;BME280;11052;43.338;25.502;2024-01-25T08:22:38;100870.19;;;5.84;100.00
2268;BME280;11052;43.338;25.502;2024-01-25T08:25:09;100868.50;;;5.98;100.00
2268;BME280;11052;43.338;25.502;2024-01-25T08:27:37;100882.19;;;6.06;100.00
2268;BME280;11052;43.338;25.502;2024-01-25T08:30:05;100878.78;;;6.00;100.00
2268;BME280;11052;43.338;25.502;2024-01-25T08:32:32;100888.22;;;5.95;100.00
2268;BME280;11052;43.338;25.502;2024-01-25T08:34:59;100883.06;;;5.96;100.00
2268;BME280;11052;43.338;25.502;2024-01-25T08:37:26;100883.03;;;6.10;100.00
2268;BME280;11052;43.338;25.502;2024-01-25T08:39:53;100881.28;;;6.15;100.00
2268;BME280;11052;43.338;25.502;2024-01-25T08:42:22;100883.78;;;6.38;100.00
2268;BME280;11052;43.338;25.502;2024-01-25T08:44:49;100889.78;;;6.46;100.00
2268;BME280;11052;43.338;25.502;2024-01-25T08:47:17;100888.88;;;6.56;100.00
2268;BME280;11052;43.338;25.502;2024-01-25T08:49:44;100885.41;;;6.63;100.00
2268;BME280;11052;43.338;25.502;2024-01-25T08:52:11;100887.06;;;6.76;100.00
2268;BME280;11052;43.338;25.502;2024-01-25T08:54:38;100876.72;;;6.82;100.00
2268;BME280;11052;43.338;25.502;2024-01-25T08:57:05;100888.75;;;6.86;100.00
2268;BME280;11052;43.338;25.502;2024-01-25T08:59:34;100889.56;;;6.92;100.00
2268;BME280;11052;43.338;25.502;2024-01-25T09:02:03;100887.00;;;6.88;100.00
2268;BME280;11052;43.338;25.502;2024-01-25T09:04:31;100884.31;;;7.02;100.00
2268;BME280;11052;43.338;25.502;2024-01-25T09:06:59;100880.88;;;7.03;100.00
2268;BME280;11052;43.338;25.502;2024-01-25T09:09:26;100883.41;;;7.11;100.00
2268;BME280;11052;43.338;25.502;2024-01-25T09:11:53;100888.41;;;7.34;100.00
2268;BME280;11052;43.338;25.502;2024-01-25T09:14:20;100903.00;;;7.38;100.00
2268;BME280;11052;43.338;25.502;2024-01-25T09:16:49;100886.69;;;7.34;100.00
2268;BME280;11052;43.338;25.502;2024-01-25T09:19:16;100884.94;;;7.39;100.00
2268;BME280;11052;43.338;25.502;2024-01-25T09:21:43;100878.03;;;7.43;100.00
2268;BME280;11052;43.338;25.502;2024-01-25T09:24:10;100888.28;;;7.49;100.00
2268;BME280;11052;43.338;25.502;2024-01-25T09:26:37;100884.88;;;7.48;100.00
2268;BME280;11052;43.338;25.502;2024-01-25T09:29:04;100884.03;;;7.43;100.00
2268;BME280;11052;43.338;25.502;2024-01-25T09:31:31;100883.97;;;7.52;100.00
2268;BME280;11052;43.338;25.502;2024-01-25T09:34:00;100878.78;;;7.57;100.00
2268;BME280;11052;43.338;25.502;2024-01-25T09:36:27;100869.19;;;7.70;100.00
2268;BME280;11052;43.338;25.502;2024-01-25T09:38:54;100871.59;;;7.85;100.00
2268;BME280;11052;43.338;25.502;2024-01-25T09:41:21;100866.28;;;8.02;100.00
2268;BME280;11052;43.338;25.502;2024-01-25T09:43:48;100865.44;;;8.00;100.00
2268;BME280;11052;43.338;25.502;2024-01-25T09:46:16;100854.28;;;7.98;100.00
2268;BME280;11052;43.338;25.502;2024-01-25T09:48:43;100854.81;;;8.26;100.00
2268;BME280;11052;43.338;25.502;2024-01-25T09:51:14;100858.88;;;8.49;100.00
2268;BME280;11052;43.338;25.502;2024-01-25T09:53:42;100855.53;;;8.41;100.00
2268;BME280;11052;43.338;25.502;2024-01-25T09:56:12;100858.03;;;8.49;100.00
2268;BME280;11052;43.338;25.502;2024-01-25T09:58:41;100837.94;;;8.68;100.00
2268;BME280;11052;43.338;25.502;2024-01-25T10:01:09;100844.56;;;8.87;100.00
2268;BME280;11052;43.338;25.502;2024-01-25T10:03:38;100840.19;;;8.91;100.00
2268;BME280;11052;43.338;25.502;2024-01-25T10:06:07;100831.63;;;8.88;100.00
2268;BME280;11052;43.338;25.502;2024-01-25T10:08:35;100825.50;;;8.94;100.00
2268;BME280;11052;43.338;25.502;2024-01-25T10:11:02;100822.94;;;8.93;100.00
2268;BME280;11052;43.338;25.502;2024-01-25T10:13:30;100816.94;;;8.89;100.00
2268;BME280;11052;43.338;25.502;2024-01-25T10:15:56;100825.63;;;8.85;100.00
2268;BME280;11052;43.338;25.502;2024-01-25T10:18:24;100827.44;;;8.80;100.00
2268;BME280;11052;43.338;25.502;2024-01-25T10:20:53;100820.03;;;8.57;100.00
2268;BME280;11052;43.338;25.502;2024-01-25T10:23:20;100817.41;;;8.60;100.00
2268;BME280;11052;43.338;25.502;2024-01-25T10:25:49;100816.53;;;8.60;100.00
2268;BME280;11052;43.338;25.502;2024-01-25T10:28:16;100816.59;;;8.55;100.00
2268;BME280;11052;43.338;25.502;2024-01-25T10:30:47;100813.19;;;8.53;100.00
2268;BME280;11052;43.338;25.502;2024-01-25T10:33:15;100824.25;;;8.63;100.00
2268;BME280;11052;43.338;25.502;2024-01-25T10:35:43;100816.59;;;8.55;100.00
2268;BME280;11052;43.338;25.502;2024-01-25T10:38:16;100822.72;;;8.49;100.00
2268;BME280;11052;43.338;25.502;2024-01-25T10:40:46;100818.38;;;8.51;100.00
2268;BME280;11052;43.338;25.502;2024-01-25T10:43:15;100819.25;;;8.50;100.00
2268;BME280;11052;43.338;25.502;2024-01-25T10:45:42;100808.78;;;8.61;100.00
2268;BME280;11052;43.338;25.502;2024-01-25T10:48:10;100803.63;;;8.60;100.00
2268;BME280;11052;43.338;25.502;2024-01-25T10:50:37;100803.47;;;8.67;100.00
2268;BME280;11052;43.338;25.502;2024-01-25T10:53:05;100789.75;;;8.65;100.00
2268;BME280;11052;43.338;25.502;2024-01-25T10:55:34;100792.34;;;8.65;100.00
2268;BME280;11052;43.338;25.502;2024-01-25T10:58:01;100776.88;;;8.62;100.00
2268;BME280;11052;43.338;25.502;2024-01-25T11:00:31;100769.09;;;8.64;100.00
2268;BME280;11052;43.338;25.502;2024-01-25T11:03:00;100764.63;;;8.73;100.00
2268;BME280;11052;43.338;25.502;2024-01-25T11:05:28;100741.34;;;8.75;100.00
2268;BME280;11052;43.338;25.502;2024-01-25T11:07:55;100749.06;;;8.78;100.00
2268;BME280;11052;43.338;25.502;2024-01-25T11:10:25;100735.28;;;8.77;100.00
2268;BME280;11052;43.338;25.502;2024-01-25T11:12:56;100739.41;;;8.89;100.00
2268;BME280;11052;43.338;25.502;2024-01-25T11:15:32;100744.53;;;8.91;100.00
2268;BME280;11052;43.338;25.502;2024-01-25T11:18:00;100741.78;;;9.01;100.00
2268;BME280;11052;43.338;25.502;2024-01-25T11:20:28;100731.38;;;9.06;100.00
2268;BME280;11052;43.338;25.502;2024-01-25T11:22:56;100739.78;;;9.17;100.00
2268;BME280;11052;43.338;25.502;2024-01-25T11:25:27;100733.50;;;9.32;100.00
2268;BME280;11052;43.338;25.502;2024-01-25T11:27:54;100743.53;;;9.48;100.00
2268;BME280;11052;43.338;25.502;2024-01-25T11:30:21;100734.34;;;9.77;100.00
2268;BME280;11052;43.338;25.502;2024-01-25T11:32:50;100738.34;;;9.93;100.00
2268;BME280;11052;43.338;25.502;2024-01-25T11:35:17;100741.34;;;10.15;100.00
2268;BME280;11052;43.338;25.502;2024-01-25T11:37:45;100734.13;;;10.31;100.00
2268;BME280;11052;43.338;25.502;2024-01-25T11:40:14;100726.31;;;10.32;100.00
2268;BME280;11052;43.338;25.502;2024-01-25T11:42:42;100729.94;;;10.62;100.00
2268;BME280;11052;43.338;25.502;2024-01-25T11:45:11;100719.19;;;10.77;100.00
2268;BME280;11052;43.338;25.502;2024-01-25T11:47:41;100726.97;;;10.77;100.00
2268;BME280;11052;43.338;25.502;2024-01-25T11:50:11;100719.78;;;10.89;100.00
2268;BME280;11052;43.338;25.502;2024-01-25T11:52:39;100731.94;;;10.87;100.00
2268;BME280;11052;43.338;25.502;2024-01-25T11:55:07;100739.88;;;10.80;100.00
2268;BME280;11052;43.338;25.502;2024-01-25T11:57:37;100743.91;;;10.55;100.00
2268;BME280;11052;43.338;25.502;2024-01-25T12:00:08;100739.84;;;10.43;100.00
2268;BME280;11052;43.338;25.502;2024-01-25T12:02:36;100736.53;;;10.38;100.00
2268;BME280;11052;43.338;25.502;2024-01-25T12:05:05;100738.31;;;10.36;100.00
2268;BME280;11052;43.338;25.502;2024-01-25T12:07:38;100724.81;;;10.22;100.00
2268;BME280;11052;43.338;25.502;2024-01-25T12:10:15;100727.53;;;10.14;100.00
2268;BME280;11052;43.338;25.502;2024-01-25T12:12:45;100717.25;;;10.11;100.00
2268;BME280;11052;43.338;25.502;2024-01-25T12:15:13;100723.56;;;9.98;100.00
2268;BME280;11052;43.338;25.502;2024-01-25T12:17:41;100717.63;;;9.93;100.00
2268;BME280;11052;43.338;25.502;2024-01-25T12:20:10;100717.00;;;9.80;100.00
2268;BME280;11052;43.338;25.502;2024-01-25T12:22:39;100708.31;;;9.84;100.00
2268;BME280;11052;43.338;25.502;2024-01-25T12:25:07;100704.09;;;9.79;100.00
2268;BME280;11052;43.338;25.502;2024-01-25T12:27:35;100709.47;;;9.70;100.00
2268;BME280;11052;43.338;25.502;2024-01-25T12:30:03;100703.59;;;9.62;100.00
2268;BME280;11052;43.338;25.502;2024-01-25T12:32:32;100710.72;;;9.50;100.00
2268;BME280;11052;43.338;25.502;2024-01-25T12:35:01;100701.22;;;9.52;100.00
2268;BME280;11052;43.338;25.502;2024-01-25T12:37:29;100701.53;;;9.36;100.00
2268;BME280;11052;43.338;25.502;2024-01-25T12:39:57;100696.97;;;9.48;100.00
2268;BME280;11052;43.338;25.502;2024-01-25T12:42:25;100699.34;;;9.58;100.00
2268;BME280;11052;43.338;25.502;2024-01-25T12:44:52;100687.88;;;9.71;100.00
2268;BME280;11052;43.338;25.502;2024-01-25T12:47:20;100690.09;;;9.89;100.00
2268;BME280;11052;43.338;25.502;2024-01-25T12:49:47;100680.28;;;10.03;100.00